Time;durP1;ratioP1;P1;durP2;ratioP2;P2;SDS_P1;SDS_P2;PMS_P1;PMS_P2;Temp;Humidity;BMP_temperature;BMP_pressure;BME280_temperature;BME280_humidity;BME280_pressure;Samples;Min_cycle;Max_cycle;Signal;HPM_P1;HPM_P2
2023/04/01 00:01:25;;;;;;;;;;;;;;;26.71;25.88;99936.91;5072292;28;1910;-31
2023/04/01 00:03:50;;;;;;;;;;;;;;;26.94;26.00;99938.44;5059680;28;1107;-31
2023/04/01 00:06:16;;;;;;;;;;;;;;;27.15;26.06;99940.19;5059437;28;1076;-32
2023/04/01 00:08:42;;;;;;;;;;;;;;;27.26;26.15;99945.00;5059742;28;1015;-30
2023/04/01 00:11:07;;;;;;;;;;;;;;;26.84;26.21;99933.41;5069927;28;1102;-27
2023/04/01 00:13:33;;;;;;;;;;;;;;;27.05;26.15;99931.66;5066165;28;1035;-28
2023/04/01 00:15:59;;;;;;;;;;;;;;;27.05;26.22;99934.34;5079333;28;1145;-28
2023/04/01 00:18:24;;;;;;;;;;;;;;;27.29;26.30;99938.38;5065158;28;1112;-32
2023/04/01 00:20:50;;;;;;;;;;;;;;;26.74;25.88;99928.41;5064575;28;1969;-29
2023/04/01 00:23:16;;;;;;;;;;;;;;;27.13;26.49;99928.78;5078750;28;1353;-33
2023/04/01 00:25:42;;;;;;;;;;;;;;;27.20;26.26;99926.09;5079378;28;1349;-28
2023/04/01 00:28:07;;;;;;;;;;;;;;;27.37;26.42;99930.09;5059585;28;1203;-27
2023/04/01 00:30:33;;;;;;;;;;;;;;;26.98;26.50;99924.34;5058998;28;1227;-30
2023/04/01 00:32:58;;;;;;;;;;;;;;;26.78;26.15;99919.69;5057645;28;1237;-27
2023/04/01 00:35:24;;;;;;;;;;;;;;;27.18;26.36;99922.75;5051968;28;1322;-32
2023/04/01 00:37:50;;;;;;;;;;;;;;;27.21;26.61;99912.38;5088324;28;1158;-29
2023/04/01 00:40:36;;;;;;;;;;;;;;;26.78;25.83;99913.47;5078819;28;1977;-33
2023/04/01 00:43:02;;;;;;;;;;;;;;;26.90;25.79;99909.16;5078911;28;1275;-29
2023/04/01 00:45:34;;;;;;;;;;;;;;;27.19;26.36;99906.38;5061154;28;1250;-30
2023/04/01 00:48:20;;;;;;;;;;;;;;;27.26;26.33;99893.69;5049590;28;1142;-28
2023/04/01 00:50:50;;;;;;;;;;;;;;;26.83;26.13;99888.56;5040645;28;1560;-30
2023/04/01 00:53:16;;;;;;;;;;;;;;;26.73;26.96;99889.78;5041431;28;1226;-33
2023/04/01 00:55:43;;;;;;;;;;;;;;;27.35;26.22;99883.56;5040849;28;1213;-28
2023/04/01 00:58:11;;;;;;;;;;;;;;;27.12;25.50;99892.03;5072702;28;1114;-27
2023/04/01 01:00:36;;;;;;;;;;;;;;;26.98;25.89;99891.09;5047336;28;1975;-29
2023/04/01 01:03:02;;;;;;;;;;;;;;;27.05;27.02;99897.41;5060020;28;1030;-30
2023/04/01 01:05:37;;;;;;;;;;;;;;;27.28;25.95;99893.50;5060622;28;1273;-30
2023/04/01 01:08:08;;;;;;;;;;;;;;;26.94;25.81;99892.56;5078532;28;1086;-29
2023/04/01 01:10:33;;;;;;;;;;;;;;;27.29;25.29;99884.38;5042797;28;1126;-28
2023/04/01 01:13:04;;;;;;;;;;;;;;;27.00;26.57;99897.97;5043962;28;1230;-28
2023/04/01 01:15:39;;;;;;;;;;;;;;;27.24;26.57;99906.56;5040509;28;1147;-32
2023/04/01 01:18:08;;;;;;;;;;;;;;;26.74;26.33;99890.63;5053261;28;1129;-28
2023/04/01 01:20:48;;;;;;;;;;;;;;;27.10;26.42;99892.22;5078304;28;1972;-29
2023/04/01 01:23:23;;;;;;;;;;;;;;;26.97;26.76;99889.47;5078065;28;1174;-27
2023/04/01 01:26:07;;;;;;;;;;;;;;;27.13;26.43;99888.28;5060129;28;1131;-28
2023/04/01 01:28:48;;;;;;;;;;;;;;;26.94;26.04;99879.91;5078371;28;1099;-30
2023/04/01 01:31:16;;;;;;;;;;;;;;;27.15;26.70;99875.41;5060012;28;1091;-27
2023/04/01 01:33:48;;;;;;;;;;;;;;;26.92;27.02;99879.28;5060597;28;1063;-31
2023/04/01 01:36:14;;;;;;;;;;;;;;;27.08;26.95;99866.44;5059909;28;1122;-30
2023/04/01 01:38:39;;;;;;;;;;;;;;;26.86;25.78;99877.41;5060142;28;1166;-30
2023/04/01 01:41:06;;;;;;;;;;;;;;;27.06;26.56;99882.84;5059690;28;1910;-29
2023/04/01 01:43:42;;;;;;;;;;;;;;;26.85;26.63;99883.81;5043549;28;1433;-29
2023/04/01 01:46:11;;;;;;;;;;;;;;;26.61;26.68;99886.81;5035614;28;1104;-27
2023/04/01 01:48:37;;;;;;;;;;;;;;;27.06;26.48;99887.44;5040286;28;1352;-30
2023/04/01 01:51:06;;;;;;;;;;;;;;;26.74;25.88;99883.34;5047326;28;1330;-28
2023/04/01 01:53:32;;;;;;;;;;;;;;;27.07;26.42;99886.41;5064464;28;1040;-27
2023/04/01 01:55:58;;;;;;;;;;;;;;;27.02;26.96;99887.84;5050395;28;1223;-34
2023/04/01 01:58:28;;;;;;;;;;;;;;;27.12;26.28;99897.41;5039090;28;1539;-30
2023/04/01 02:00:59;;;;;;;;;;;;;;;26.77;25.88;99887.53;5057016;28;1906;-30
2023/04/01 02:03:25;;;;;;;;;;;;;;;27.07;26.18;99881.00;5047178;28;1983;-26
2023/04/01 02:05:51;;;;;;;;;;;;;;;27.05;26.92;99883.91;5051161;28;1264;-33
2023/04/01 02:08:18;;;;;;;;;;;;;;;27.06;26.91;99877.47;5077340;28;1143;-27
2023/04/01 02:10:45;;;;;;;;;;;;;;;27.22;26.57;99876.25;5042469;28;1187;-28
2023/04/01 02:13:17;;;;;;;;;;;;;;;26.74;26.10;99869.84;5044452;28;1140;-30
2023/04/01 02:15:43;;;;;;;;;;;;;;;27.01;26.85;99867.28;5042602;28;1163;-29
2023/04/01 02:18:08;;;;;;;;;;;;;;;27.08;26.88;99858.34;5028192;28;1325;-28
2023/04/01 02:20:34;;;;;;;;;;;;;;;27.22;26.64;99857.38;5066371;28;1984;-30
2023/04/01 02:22:59;;;;;;;;;;;;;;;26.84;26.76;99861.38;5039521;28;1309;-30
2023/04/01 02:25:26;;;;;;;;;;;;;;;27.09;25.91;99850.06;5053757;28;2055;-27
2023/04/01 02:27:52;;;;;;;;;;;;;;;26.96;27.33;99852.72;5070030;28;1147;-31
2023/04/01 02:30:18;;;;;;;;;;;;;;;27.01;27.25;99851.09;5043482;28;1183;-31
2023/04/01 02:32:43;;;;;;;;;;;;;;;27.34;26.71;99854.06;5046342;28;1306;-29
2023/04/01 02:35:10;;;;;;;;;;;;;;;26.85;26.58;99851.44;5039477;28;1474;-27
2023/04/01 02:37:36;;;;;;;;;;;;;;;27.15;26.92;99837.63;5056841;28;1183;-25
2023/04/01 02:40:02;;;;;;;;;;;;;;;27.31;26.65;99846.38;5056741;28;1988;-27
2023/04/01 02:42:28;;;;;;;;;;;;;;;27.41;26.26;99845.97;5026886;28;1147;-29
2023/04/01 02:44:53;;;;;;;;;;;;;;;26.96;27.37;99837.34;5039379;28;1265;-29
2023/04/01 02:47:19;;;;;;;;;;;;;;;26.74;26.22;99826.69;5039646;28;2239;-30
2023/04/01 02:49:45;;;;;;;;;;;;;;;27.20;26.92;99827.03;5076175;28;1217;-29
2023/04/01 02:52:10;;;;;;;;;;;;;;;27.21;25.73;99820.59;5075735;28;1162;-27
2023/04/01 02:54:36;;;;;;;;;;;;;;;27.19;26.57;99819.16;5056547;28;1036;-31
2023/04/01 02:57:01;;;;;;;;;;;;;;;26.62;26.69;99818.38;5039063;28;1108;-27
2023/04/01 02:59:27;;;;;;;;;;;;;;;27.12;26.48;99806.47;5057126;28;1914;-28
2023/04/01 03:01:53;;;;;;;;;;;;;;;27.37;26.35;99808.56;5048327;28;1134;-27
2023/04/01 03:04:18;;;;;;;;;;;;;;;27.06;25.92;99801.88;5056760;28;1032;-33
2023/04/01 03:06:44;;;;;;;;;;;;;;;26.72;25.92;99803.66;5056228;28;1221;-29
2023/04/01 03:09:10;;;;;;;;;;;;;;;27.12;26.31;99808.34;5070075;28;1114;-29
2023/04/01 03:11:35;;;;;;;;;;;;;;;27.26;26.14;99809.16;5066133;28;1102;-30
2023/04/01 03:14:01;;;;;;;;;;;;;;;27.42;25.61;99801.69;5041640;28;1141;-33
2023/04/01 03:16:27;;;;;;;;;;;;;;;26.47;26.18;99794.25;5066516;28;1087;-27
2023/04/01 03:18:53;;;;;;;;;;;;;;;26.75;25.89;99787.91;5058394;28;1261;-28
2023/04/01 03:21:20;;;;;;;;;;;;;;;27.18;25.56;99788.59;5058456;28;1902;-31
2023/04/01 03:23:46;;;;;;;;;;;;;;;26.96;25.87;99788.75;5075718;28;1067;-29
2023/04/01 03:26:11;;;;;;;;;;;;;;;27.14;26.07;99790.88;5076221;28;1219;-28
2023/04/01 03:28:37;;;;;;;;;;;;;;;27.07;25.81;99783.81;5058122;28;1265;-28
2023/04/01 03:31:02;;;;;;;;;;;;;;;26.99;26.27;99776.75;5076342;28;1039;-29
2023/04/01 03:33:33;;;;;;;;;;;;;;;27.12;25.30;99779.47;5060933;28;1146;-27
2023/04/01 03:35:59;;;;;;;;;;;;;;;27.56;24.44;99772.81;5079901;28;1115;-29
2023/04/01 03:38:25;;;;;;;;;;;;;;;27.00;25.26;99773.00;5049240;28;1267;-27
2023/04/01 03:40:50;;;;;;;;;;;;;;;26.72;25.94;99766.72;5061730;28;1969;-27
2023/04/01 03:43:16;;;;;;;;;;;;;;;27.07;25.91;99770.31;5062323;28;1121;-29
2023/04/01 03:45:45;;;;;;;;;;;;;;;26.43;26.19;99776.81;5056307;28;1250;-26
2023/04/01 03:48:12;;;;;;;;;;;;;;;25.35;25.63;99773.44;5070466;28;1364;-27
2023/04/01 03:50:37;;;;;;;;;;;;;;;25.96;24.26;99774.69;5079636;28;1000;-26
2023/04/01 03:53:03;;;;;;;;;;;;;;;26.07;24.05;99765.25;5079418;28;1107;-26
2023/04/01 03:55:29;;;;;;;;;;;;;;;26.76;23.54;99781.47;5061741;28;1168;-29
2023/04/01 03:57:54;;;;;;;;;;;;;;;25.27;24.82;99782.50;5079564;28;1307;-31
2023/04/01 04:00:20;;;;;;;;;;;;;;;25.09;25.09;99785.66;5078843;28;1972;-29
2023/04/01 04:02:51;;;;;;;;;;;;;;;27.20;23.16;99800.03;5062011;28;1369;-29
2023/04/01 04:05:23;;;;;;;;;;;;;;;24.98;24.84;99790.50;5061666;28;1606;-30
2023/04/01 04:07:49;;;;;;;;;;;;;;;24.17;25.80;99790.38;5079392;28;972;-31
2023/04/01 04:10:15;;;;;;;;;;;;;;;26.28;23.39;99793.94;5060880;28;1218;-29
2023/04/01 04:12:41;;;;;;;;;;;;;;;26.59;22.87;99793.66;5060489;28;1242;-28
2023/04/01 04:15:07;;;;;;;;;;;;;;;26.92;22.54;99794.78;5061075;28;1110;-29
2023/04/01 04:17:33;;;;;;;;;;;;;;;25.62;23.04;99784.41;5061494;28;1208;-27
2023/04/01 04:19:59;;;;;;;;;;;;;;;24.98;24.51;99784.28;5061285;28;1894;-27
2023/04/01 04:22:24;;;;;;;;;;;;;;;26.53;22.58;99785.34;5061223;28;1098;-31
2023/04/01 04:24:50;;;;;;;;;;;;;;;27.07;22.08;99790.06;5061055;28;1176;-34
2023/04/01 04:27:16;;;;;;;;;;;;;;;25.82;24.60;99792.66;5061150;28;1317;-30
2023/04/01 04:29:54;;;;;;;;;;;;;;;25.89;24.61;99779.25;5046782;28;1391;-34
2023/04/01 04:32:20;;;;;;;;;;;;;;;26.88;23.08;99780.84;5078625;28;1035;-29
2023/04/01 04:34:45;;;;;;;;;;;;;;;27.15;23.13;99775.53;5077099;28;1670;-31
2023/04/01 04:37:11;;;;;;;;;;;;;;;27.31;22.85;99776.97;5060384;28;1296;-33
2023/04/01 04:39:36;;;;;;;;;;;;;;;25.75;24.61;99779.16;5060566;28;1980;-30
2023/04/01 04:42:02;;;;;;;;;;;;;;;25.53;25.21;99775.66;5060669;28;1276;-30
2023/04/01 04:44:28;;;;;;;;;;;;;;;27.17;23.58;99775.31;5059087;28;1138;-28
2023/04/01 04:46:54;;;;;;;;;;;;;;;26.46;23.94;99770.19;5060338;28;1309;-32
2023/04/01 04:49:19;;;;;;;;;;;;;;;25.37;25.69;99771.38;5078297;28;1158;-30
2023/04/01 04:51:45;;;;;;;;;;;;;;;26.03;25.54;99761.25;5078229;28;1130;-34
2023/04/01 04:54:13;;;;;;;;;;;;;;;26.96;24.13;99772.56;5060121;28;1115;-27
2023/04/01 04:56:52;;;;;;;;;;;;;;;27.31;23.84;99766.16;5060035;28;1226;-30
2023/04/01 04:59:18;;;;;;;;;;;;;;;25.99;25.40;99768.09;5058189;28;1418;-29
2023/04/01 05:02:04;;;;;;;;;;;;;;;25.34;26.26;99751.06;5077082;28;1019;-28
2023/04/01 05:04:30;;;;;;;;;;;;;;;26.99;24.30;99761.34;5060043;28;1178;-28
2023/04/01 05:06:55;;;;;;;;;;;;;;;26.85;24.45;99760.53;5059480;28;1344;-26
2023/04/01 05:09:22;;;;;;;;;;;;;;;25.04;26.57;99757.44;5059996;28;1281;-32
2023/04/01 05:11:48;;;;;;;;;;;;;;;25.90;26.17;99762.03;5059959;28;1247;-27
2023/04/01 05:14:14;;;;;;;;;;;;;;;26.92;24.40;99767.78;5058736;28;905;-26
2023/04/01 05:16:41;;;;;;;;;;;;;;;27.40;23.87;99761.41;5059548;28;1147;-27
2023/04/01 05:19:07;;;;;;;;;;;;;;;25.46;26.54;99758.63;5053151;28;1055;-27
2023/04/01 05:21:33;;;;;;;;;;;;;;;25.51;26.83;99758.84;5059279;28;1906;-28
2023/04/01 05:23:58;;;;;;;;;;;;;;;27.21;24.46;99755.78;5059929;28;1380;-23
2023/04/01 05:26:25;;;;;;;;;;;;;;;26.18;26.39;99753.03;5058821;28;1310;-26
2023/04/01 05:28:50;;;;;;;;;;;;;;;25.36;27.24;99743.63;5077198;28;1043;-27
2023/04/01 05:31:16;;;;;;;;;;;;;;;26.57;25.59;99752.56;5059676;28;1266;-26
2023/04/01 05:33:44;;;;;;;;;;;;;;;26.98;25.10;99735.41;5059383;28;1409;-26
2023/04/01 05:36:11;;;;;;;;;;;;;;;27.26;24.79;99737.09;5076653;28;1111;-28
2023/04/01 05:38:37;;;;;;;;;;;;;;;26.11;26.11;99727.94;5059216;28;1300;-25
2023/04/01 05:41:04;;;;;;;;;;;;;;;26.00;26.69;99732.03;5059460;28;1984;-28
2023/04/01 05:43:31;;;;;;;;;;;;;;;26.99;25.28;99726.28;5058819;28;1642;-28
2023/04/01 05:46:04;;;;;;;;;;;;;;;26.27;26.17;99727.59;5059053;28;1475;-25
2023/04/01 05:48:37;;;;;;;;;;;;;;;25.41;27.36;99716.97;5059099;28;1290;-27
2023/04/01 05:51:03;;;;;;;;;;;;;;;25.69;26.85;99723.38;5076497;28;1132;-25
2023/04/01 05:53:29;;;;;;;;;;;;;;;25.14;27.77;99722.13;5072121;28;1080;-29
2023/04/01 05:55:54;;;;;;;;;;;;;;;25.16;27.66;99716.56;5076384;28;1070;-28
2023/04/01 05:58:20;;;;;;;;;;;;;;;25.96;27.05;99711.91;5042242;28;1202;-27
2023/04/01 06:00:46;;;;;;;;;;;;;;;25.58;26.75;99708.56;5040069;28;1914;-24
2023/04/01 06:03:15;;;;;;;;;;;;;;;25.65;27.21;99698.72;5059107;28;1357;-26
2023/04/01 06:05:44;;;;;;;;;;;;;;;25.90;27.08;99700.91;5076526;28;1019;-29
2023/04/01 06:08:14;;;;;;;;;;;;;;;25.87;25.95;99703.16;5058614;28;1307;-28
2023/04/01 06:11:00;;;;;;;;;;;;;;;25.94;26.51;99705.88;5058785;28;1115;-25
2023/04/01 06:13:39;;;;;;;;;;;;;;;26.01;26.69;99714.81;5057616;28;1288;-26
2023/04/01 06:16:24;;;;;;;;;;;;;;;26.55;25.87;99703.41;5042145;28;1128;-24
2023/04/01 06:19:03;;;;;;;;;;;;;;;25.92;26.84;99693.44;5058357;28;1493;-27
2023/04/01 06:21:57;;;;;;;;;;;;;;;25.65;27.14;99695.16;5058469;28;1909;-28
2023/04/01 06:24:32;;;;;;;;;;;;;;;26.40;25.69;99694.47;5033808;28;1128;-26
2023/04/01 06:27:05;;;;;;;;;;;;;;;25.94;26.54;99687.88;5058326;28;1224;-29
2023/04/01 06:29:31;;;;;;;;;;;;;;;25.65;26.93;99687.09;5058211;28;1179;-24
2023/04/01 06:32:13;;;;;;;;;;;;;;;26.50;25.79;99693.22;5058375;28;1071;-28
2023/04/01 06:34:42;;;;;;;;;;;;;;;26.59;24.64;99694.69;5041954;28;1457;-28
2023/04/01 06:37:20;;;;;;;;;;;;;;;25.54;26.82;99675.81;5057888;28;1040;-25
2023/04/01 06:40:04;;;;;;;;;;;;;;;25.87;26.58;99687.00;5075926;28;1909;-27
2023/04/01 06:42:34;;;;;;;;;;;;;;;26.51;25.55;99679.53;5057451;28;1405;-28
2023/04/01 06:45:07;;;;;;;;;;;;;;;25.75;26.54;99679.50;5053014;28;1398;-25
2023/04/01 06:48:00;;;;;;;;;;;;;;;25.58;26.86;99680.78;5061218;28;1226;-25
2023/04/01 06:50:50;;;;;;;;;;;;;;;26.32;25.74;99673.06;5035434;28;1076;-29
2023/04/01 06:53:54;;;;;;;;;;;;;;;25.92;26.58;99673.75;5065231;28;1027;-27
2023/04/01 06:56:40;;;;;;;;;;;;;;;26.21;26.44;99674.47;5063000;28;878;-28
2023/04/01 06:59:31;;;;;;;;;;;;;;;25.84;26.50;99682.81;5041057;28;1482;-31
2023/04/01 07:01:58;;;;;;;;;;;;;;;25.94;26.71;99687.88;5049225;28;1449;-27
2023/04/01 07:04:47;;;;;;;;;;;;;;;26.32;26.34;99685.69;5049632;28;1402;-26
2023/04/01 07:07:31;;;;;;;;;;;;;;;25.91;26.48;99699.03;5046860;28;1846;-26
2023/04/01 07:10:02;;;;;;;;;;;;;;;26.09;26.62;99687.69;5052280;28;1275;-27
2023/04/01 07:12:30;;;;;;;;;;;;;;;26.51;26.19;99692.19;5042255;28;2765;-26
2023/04/01 07:15:22;;;;;;;;;;;;;;;25.86;26.63;99675.38;5030723;28;2513;-27
2023/04/01 07:17:50;;;;;;;;;;;;;;;26.32;26.16;99680.31;5036215;28;2443;-25
2023/04/01 07:20:15;;;;;;;;;;;;;;;26.47;26.48;99682.84;5014242;28;3558;-14
2023/04/01 07:22:44;;;;;;;;;;;;;;;26.06;26.30;99673.81;5039646;28;2451;-13
2023/04/01 07:25:48;;;;;;;;;;;;;;;26.15;26.45;99672.59;5018912;28;1360;-14
2023/04/01 07:28:34;;;;;;;;;;;;;;;26.63;25.95;99673.53;4992010;28;1699;-13
2023/04/01 07:31:15;;;;;;;;;;;;;;;25.84;27.13;99660.47;5052074;28;1417;-13
2023/04/01 07:33:44;;;;;;;;;;;;;;;26.28;26.50;99661.00;5031664;28;1584;-14
2023/04/01 07:36:13;;;;;;;;;;;;;;;26.67;25.96;99666.69;5048187;28;1246;-13
2023/04/01 07:38:40;;;;;;;;;;;;;;;25.92;26.77;99662.97;5057443;28;1273;-13
2023/04/01 07:41:18;;;;;;;;;;;;;;;26.11;26.65;99661.38;5056453;28;1969;-14
2023/04/01 07:44:04;;;;;;;;;;;;;;;26.50;26.12;99655.47;5055052;28;1246;-27
2023/04/01 07:46:52;;;;;;;;;;;;;;;25.98;26.88;99648.69;5047055;28;1911;-25
2023/04/01 07:49:21;;;;;;;;;;;;;;;26.29;26.32;99655.41;5045363;28;1163;-28
2023/04/01 07:52:05;;;;;;;;;;;;;;;26.55;26.05;99652.16;5040343;28;1230;-28
2023/04/01 07:54:43;;;;;;;;;;;;;;;26.27;26.66;99648.56;5044213;28;1364;-25
2023/04/01 07:57:12;;;;;;;;;;;;;;;26.02;27.13;99639.19;5039929;28;1438;-29
2023/04/01 08:00:07;;;;;;;;;;;;;;;26.56;26.12;99643.03;5057268;28;1994;-25
2023/04/01 08:03:05;;;;;;;;;;;;;;;26.23;26.85;99641.91;5049075;28;1199;-25
2023/04/01 08:05:34;;;;;;;;;;;;;;;26.11;26.59;99631.72;5057111;28;1450;-25
2023/04/01 08:08:01;;;;;;;;;;;;;;;26.85;25.72;99630.16;5040491;28;1238;-24
2023/04/01 08:10:55;;;;;;;;;;;;;;;27.49;24.90;99627.78;5067576;28;991;-28
2023/04/01 08:13:40;;;;;;;;;;;;;;;26.78;25.70;99625.63;5068807;28;1111;-26
2023/04/01 08:16:31;;;;;;;;;;;;;;;26.30;26.67;99615.81;5034139;28;1053;-26
2023/04/01 08:18:59;;;;;;;;;;;;;;;27.58;24.99;99612.19;5038687;28;1619;-24
2023/04/01 08:21:44;;;;;;;;;;;;;;;27.07;25.38;99613.78;5060592;28;1918;-26
2023/04/01 08:24:28;;;;;;;;;;;;;;;26.55;26.29;99607.16;5078932;28;1047;-26
2023/04/01 08:26:55;;;;;;;;;;;;;;;27.84;24.70;99605.00;5050317;28;1123;-25
2023/04/01 08:29:22;;;;;;;;;;;;;;;26.64;26.08;99599.69;5060344;28;1203;-27
2023/04/01 08:31:47;;;;;;;;;;;;;;;26.24;26.60;99593.19;5060310;28;1372;-26
2023/04/01 08:34:15;;;;;;;;;;;;;;;27.56;25.19;99600.75;5078414;28;1014;-27
2023/04/01 08:36:43;;;;;;;;;;;;;;;26.53;26.08;99601.97;5040912;28;1234;-28
2023/04/01 08:39:41;;;;;;;;;;;;;;;26.34;26.82;99598.19;5030925;28;1212;-27
2023/04/01 08:42:11;;;;;;;;;;;;;;;27.66;24.82;99592.19;5052833;28;1551;-25
2023/04/01 08:45:00;;;;;;;;;;;;;;;26.39;26.57;99593.03;5060101;28;1087;-29
2023/04/01 08:47:30;;;;;;;;;;;;;;;26.31;26.75;99595.88;5060393;28;1233;-29
2023/04/01 08:50:01;;;;;;;;;;;;;;;27.24;25.37;99587.16;5060358;28;1143;-27
2023/04/01 08:52:44;;;;;;;;;;;;;;;26.52;26.53;99589.53;5045705;28;1146;-27
2023/04/01 08:55:19;;;;;;;;;;;;;;;27.18;25.60;99588.00;5060167;28;1304;-31
2023/04/01 08:58:26;;;;;;;;;;;;;;;26.88;25.66;99586.56;5077790;28;1240;-26
2023/04/01 09:01:30;;;;;;;;;;;;;;;26.41;26.38;99584.72;5062314;28;1910;-27
2023/04/01 09:03:56;;;;;;;;;;;;;;;27.80;25.00;99582.19;5055432;28;1325;-27
2023/04/01 09:06:24;;;;;;;;;;;;;;;26.78;26.03;99576.22;5058446;28;1480;-25
2023/04/01 09:09:20;;;;;;;;;;;;;;;26.47;26.26;99572.28;5059599;28;1078;-26
2023/04/01 09:11:59;;;;;;;;;;;;;;;27.20;25.26;99577.81;4993936;28;1142;-28
2023/04/01 09:14:42;;;;;;;;;;;;;;;26.60;26.22;99566.06;5040403;28;1161;-26
2023/04/01 09:17:35;;;;;;;;;;;;;;;27.21;26.09;99569.50;5059802;28;1134;-27
2023/04/01 09:20:00;;;;;;;;;;;;;;;26.85;25.81;99560.84;5053381;28;1979;-27
2023/04/01 09:22:26;;;;;;;;;;;;;;;26.61;26.31;99562.34;5051527;28;2178;-14
2023/04/01 09:24:53;;;;;;;;;;;;;;;27.82;24.67;99560.34;5057714;28;1439;-14
2023/04/01 09:27:33;;;;;;;;;;;;;;;26.63;26.10;99560.25;5059855;28;1147;-14
2023/04/01 09:30:07;;;;;;;;;;;;;;;26.39;26.58;99554.47;5059517;28;1256;-14
2023/04/01 09:32:51;;;;;;;;;;;;;;;27.79;24.53;99550.81;5059396;28;1216;-14
2023/04/01 09:35:22;;;;;;;;;;;;;;;26.52;26.52;99542.84;5059681;28;1631;-14
2023/04/01 09:38:06;;;;;;;;;;;;;;;26.94;25.87;99547.97;5060145;28;1210;-14
2023/04/01 09:40:37;;;;;;;;;;;;;;;26.85;26.01;99533.88;5059103;28;1975;-14
2023/04/01 09:43:24;;;;;;;;;;;;;;;26.43;26.62;99526.03;5059959;28;1340;-14
2023/04/01 09:46:03;;;;;;;;;;;;;;;27.65;25.35;99527.56;5044169;28;1262;-13
2023/04/01 09:48:48;;;;;;;;;;;;;;;26.71;26.42;99519.56;5058432;28;1383;-14
2023/04/01 09:51:23;;;;;;;;;;;;;;;26.46;26.80;99514.03;5059072;28;1178;-14
2023/04/01 09:54:07;;;;;;;;;;;;;;;27.51;25.02;99506.88;5058730;28;1198;-14
2023/04/01 09:56:43;;;;;;;;;;;;;;;26.74;26.00;99502.16;5042331;28;1274;-14
2023/04/01 09:59:15;;;;;;;;;;;;;;;27.27;25.89;99486.84;5059009;28;1522;-28
2023/04/01 10:02:25;;;;;;;;;;;;;;;27.00;25.93;99473.41;5049134;28;1184;-26
2023/04/01 10:04:50;;;;;;;;;;;;;;;26.58;26.17;99469.19;5058301;28;1158;-27
2023/04/01 10:07:28;;;;;;;;;;;;;;;27.89;24.81;99471.13;5058852;28;1124;-29
2023/04/01 10:10:14;;;;;;;;;;;;;;;26.70;26.09;99471.22;5054092;28;1999;-30
2023/04/01 10:12:56;;;;;;;;;;;;;;;26.63;26.48;99458.59;5068053;28;1334;-27
2023/04/01 10:15:40;;;;;;;;;;;;;;;27.38;25.40;99450.22;5035805;28;1311;-27
2023/04/01 10:18:07;;;;;;;;;;;;;;;26.65;26.33;99450.28;5058568;28;1234;-27
2023/04/01 10:20:39;;;;;;;;;;;;;;;27.72;25.07;99456.28;5059030;28;1985;-28
2023/04/01 10:23:07;;;;;;;;;;;;;;;26.94;26.10;99453.53;5051614;28;1230;-27
2023/04/01 10:25:49;;;;;;;;;;;;;;;26.69;26.26;99450.69;5038692;28;1504;-28
2023/04/01 10:28:36;;;;;;;;;;;;;;;27.75;24.82;99455.84;5055846;28;1378;-26
2023/04/01 10:31:25;;;;;;;;;;;;;;;26.93;26.43;99456.41;5045014;28;1550;-27
2023/04/01 10:34:10;;;;;;;;;;;;;;;27.13;25.97;99464.47;5058086;28;1253;-29
2023/04/01 10:36:51;;;;;;;;;;;;;;;27.28;25.75;99457.97;5050255;28;1127;-26
2023/04/01 10:39:36;;;;;;;;;;;;;;;26.85;26.57;99446.69;5056097;28;1325;-27
2023/04/01 10:42:41;;;;;;;;;;;;;;;27.59;25.43;99440.13;5074981;28;1059;-28
2023/04/01 10:45:40;;;;;;;;;;;;;;;26.71;26.89;99435.94;5069600;28;1247;-26
2023/04/01 10:48:24;;;;;;;;;;;;;;;27.69;26.08;99440.50;5076194;28;1079;-26
2023/04/01 10:50:59;;;;;;;;;;;;;;;27.07;26.50;99436.47;5055191;28;1153;-24
2023/04/01 10:53:40;;;;;;;;;;;;;;;26.92;26.91;99430.47;5045372;28;1158;-25
2023/04/01 10:56:34;;;;;;;;;;;;;;;27.96;25.48;99421.38;5075432;28;1118;-24
2023/04/01 10:59:21;;;;;;;;;;;;;;;26.88;26.73;99419.28;5075792;28;975;-25
2023/04/01 11:02:07;;;;;;;;;;;;;;;26.97;26.98;99407.22;5075578;28;1080;-28
2023/04/01 11:05:10;;;;;;;;;;;;;;;27.26;26.46;99405.00;5069998;28;991;-28
2023/04/01 11:08:05;;;;;;;;;;;;;;;26.87;26.90;99401.44;5052140;28;1075;-27
2023/04/01 11:10:35;;;;;;;;;;;;;;;28.20;25.23;99393.72;5050325;28;1275;-28
2023/04/01 11:13:13;;;;;;;;;;;;;;;27.38;26.31;99390.81;5050998;28;1216;-28
2023/04/01 11:15:48;;;;;;;;;;;;;;;27.49;26.27;99387.41;5043544;28;1036;-27
2023/04/01 11:18:15;;;;;;;;;;;;;;;28.28;25.37;99382.59;5058123;28;1634;-29
2023/04/01 11:20:59;;;;;;;;;;;;;;;27.61;26.21;99392.94;5056184;28;1906;-27
2023/04/01 11:23:29;;;;;;;;;;;;;;;27.51;26.00;99390.72;5068883;28;1088;-27
2023/04/01 11:26:20;;;;;;;;;;;;;;;27.86;26.17;99386.75;5041107;28;1914;-24
2023/04/01 11:29:24;;;;;;;;;;;;;;;27.21;26.69;99379.72;5037975;28;1638;-26
2023/04/01 11:32:03;;;;;;;;;;;;;;;27.04;26.93;99385.63;5057340;28;1091;-27
2023/04/01 11:34:29;;;;;;;;;;;;;;;27.50;26.39;99382.84;5055562;28;1207;-26
2023/04/01 11:37:18;;;;;;;;;;;;;;;27.01;27.06;99377.91;5049895;28;1477;-26
2023/04/01 11:40:08;;;;;;;;;;;;;;;27.57;26.52;99380.09;5029344;28;1973;-30
2023/04/01 11:42:56;;;;;;;;;;;;;;;27.28;26.53;99379.69;5075409;28;842;-26
2023/04/01 11:45:53;;;;;;;;;;;;;;;27.04;27.05;99380.22;5049383;28;1361;-29
2023/04/01 11:48:34;;;;;;;;;;;;;;;28.39;25.43;99377.53;5065709;28;1099;-26
2023/04/01 11:50:59;;;;;;;;;;;;;;;27.42;26.98;99369.59;5057316;28;999;-28
2023/04/01 11:53:44;;;;;;;;;;;;;;;27.35;27.18;99356.16;5057948;28;1135;-27
2023/04/01 11:56:28;;;;;;;;;;;;;;;28.11;25.80;99358.84;5078614;28;1070;-25
2023/04/01 11:58:54;;;;;;;;;;;;;;;27.31;26.82;99358.44;5067969;28;1201;-26
2023/04/01 12:01:20;;;;;;;;;;;;;;;27.20;26.94;99356.44;5078731;28;1971;-27
2023/04/01 12:03:48;;;;;;;;;;;;;;;28.04;25.87;99347.31;5078802;28;1007;-27
2023/04/01 12:06:16;;;;;;;;;;;;;;;27.24;26.96;99346.88;5079088;28;1110;-27
2023/04/01 12:08:45;;;;;;;;;;;;;;;27.00;27.58;99344.72;5060732;28;1001;-28
2023/04/01 12:11:26;;;;;;;;;;;;;;;27.99;26.23;99355.25;5078779;28;1073;-27
2023/04/01 12:13:52;;;;;;;;;;;;;;;27.14;27.18;99344.66;5078257;28;1003;-26
2023/04/01 12:16:23;;;;;;;;;;;;;;;27.00;27.41;99336.63;5077805;28;1162;-26
2023/04/01 12:18:57;;;;;;;;;;;;;;;27.94;26.00;99322.66;5078300;28;1035;-28
2023/04/01 12:21:36;;;;;;;;;;;;;;;27.22;27.04;99320.13;5039667;28;1917;-26
2023/04/01 12:24:20;;;;;;;;;;;;;;;27.00;27.33;99320.44;5078140;28;1054;-27
2023/04/01 12:26:45;;;;;;;;;;;;;;;27.87;26.58;99322.72;5078492;28;1016;-25
2023/04/01 12:29:14;;;;;;;;;;;;;;;27.20;26.88;99326.75;5077571;28;893;-28
2023/04/01 12:31:58;;;;;;;;;;;;;;;26.99;27.40;99323.34;5073177;28;1047;-26
2023/04/01 12:34:31;;;;;;;;;;;;;;;27.51;27.00;99330.47;5072935;28;1289;-26
2023/04/01 12:37:06;;;;;;;;;;;;;;;27.25;27.05;99332.34;5060464;28;1111;-30
2023/04/01 12:39:31;;;;;;;;;;;;;;;27.23;27.17;99335.25;5077847;28;1090;-28
2023/04/01 12:42:15;;;;;;;;;;;;;;;28.02;26.35;99335.03;5077712;28;1914;-27
2023/04/01 12:44:49;;;;;;;;;;;;;;;26.90;27.56;99331.69;5077766;28;1019;-28
2023/04/01 12:47:33;;;;;;;;;;;;;;;26.73;28.00;99333.22;5071302;28;1049;-29
2023/04/01 12:50:01;;;;;;;;;;;;;;;27.58;26.98;99328.56;5076095;28;1524;-26
2023/04/01 12:52:30;;;;;;;;;;;;;;;26.70;27.83;99323.69;5053730;28;1252;-27
2023/04/01 12:54:55;;;;;;;;;;;;;;;26.68;27.81;99324.94;5068937;28;1156;-14
2023/04/01 12:57:25;;;;;;;;;;;;;;;28.05;26.40;99329.19;5076357;28;1166;-14
2023/04/01 13:00:10;;;;;;;;;;;;;;;27.00;27.52;99325.81;5046003;28;1976;-14
2023/04/01 13:02:39;;;;;;;;;;;;;;;26.72;28.01;99315.41;5059075;28;1572;-14
2023/04/01 13:05:14;;;;;;;;;;;;;;;27.63;26.92;99309.81;5069254;28;1091;-14
2023/04/01 13:07:42;;;;;;;;;;;;;;;26.73;27.88;99277.41;5078398;28;1079;-14
2023/04/01 13:10:12;;;;;;;;;;;;;;;26.79;28.35;99289.22;5075951;28;1189;-14
2023/04/01 13:12:44;;;;;;;;;;;;;;;27.55;26.72;99317.34;5056176;28;1048;-14
2023/04/01 13:15:28;;;;;;;;;;;;;;;26.60;28.25;99307.97;5063912;28;1021;-14
2023/04/01 13:17:59;;;;;;;;;;;;;;;27.04;28.14;99291.19;5075356;28;877;-14
2023/04/01 13:20:27;;;;;;;;;;;;;;;27.34;26.92;99289.72;5044894;28;1934;-28
2023/04/01 13:23:11;;;;;;;;;;;;;;;26.63;28.39;99296.75;5075547;28;1340;-29
2023/04/01 13:25:46;;;;;;;;;;;;;;;27.07;27.74;99295.28;5074487;28;1207;-29
2023/04/01 13:28:12;;;;;;;;;;;;;;;27.36;26.86;99291.13;5076819;28;1055;-29
2023/04/01 13:30:56;;;;;;;;;;;;;;;26.68;27.99;99282.63;5077476;28;1070;-28